Valley Stream, NY (11581)

12:18 PM EST on February 23, 2017 (GMT -0500)
Valley Stream | | Change Station

Elev 12 ft 40.65 °N, 73.69 °W | Updated 8 minutes ago

Overcast
Overcast
51.6 °F
Feels Like 51.6 °F
N
2.0
Wind Variable Wind from SSW
Gusts 5.0 mph

Today
High -- | Low -- °F
--% Chance of Precip.
Yesterday
High -- | Low -- °F
Precip. -- in
Pressure 29.90 in
Visibility 3.0 miles
Clouds Overcast 600 ft
Dew Point 48 °F
Humidity 88%
Rainfall 0.00 in
Snow Depth Not available.
6:37 AM 5:39 PM
Waning Crescent, 9% visible
METAR KJFK 231651Z 19006KT 3SM BR OVC006 09/08 A2990 RMK AO2 SFC VIS 4 SLP123 T00940083
Pressure 29.90 in
Visibility 3.0 miles
Clouds Overcast 600 ft
Dew Point 48 °F
Humidity 88%
Rainfall 0.00 in
Snow Depth Not available.
6:37 AM 5:39 PM
Waning Crescent, 9% visible
METAR KJFK 231651Z 19006KT 3SM BR OVC006 09/08 A2990 RMK AO2 SFC VIS 4 SLP123 T00940083

Get Your Daily Forecast Email!

Thanks for signing up!

Be on the lookout for a verification email in your inbox.

You'll start receiving the daily forecast at 8 AM.

×

10-Day Weather Forecast

Almanac

Astronomy

Feb. 23, 2017 Rise Set
Actual Time
Civil Twilight
Nautical Twilight
Astronomical Twilight
Moon
Length of Visible Light
Length of Day
Tomorrow will be .
, % of the Moon is Illuminated

Today's Extremes

State Highs State Lows

Community

WunderPhotos

Upload Photos

1,962,540 photos uploaded!

WunderBlog® & News

Nearby

Air Quality

  Air Quality AQ Index Pollutant
Not available.

Snow Depth

Station Depth Elevation

Earthquake Activity

City Distance Mag. Time & Date
Minimum magnitude displayed is 2.5.

Coastal Water Temperatures

Place Temperature

Stations

Nearby Weather Stations

Station Location Temp. Windchill Dew Point Humidity Wind Precip. Elev Updated Type
                   

Watches & Warnings

There are currently no watches in effect.